createdAt,value
2018-04-15T00:00:02.343Z,96.47
2018-04-15T00:01:02.302Z,96.47
2018-04-15T00:02:02.305Z,96.47
2018-04-15T00:03:02.235Z,97.13
2018-04-15T00:04:02.192Z,96.66
2018-04-15T00:05:02.158Z,96.47
2018-04-15T00:06:02.125Z,97.08
2018-04-15T00:07:02.078Z,96.84
2018-04-15T00:08:02.070Z,97.33
2018-04-15T00:09:02.008Z,97.42
2018-04-15T00:10:01.960Z,97.85
2018-04-15T00:11:01.942Z,97.94
2018-04-15T00:12:01.931Z,98.33
2018-04-15T00:13:01.847Z,97.85
2018-04-15T00:14:01.816Z,97.85
2018-04-15T00:15:01.772Z,98.71
2018-04-15T00:16:01.744Z,98.71
2018-04-15T00:17:01.707Z,98.13
2018-04-15T00:18:01.692Z,98.52
2018-04-15T00:19:01.633Z,98.71
2018-04-15T00:20:01.592Z,99.19
2018-04-15T00:21:01.548Z,98.80
2018-04-15T00:22:01.516Z,98.99
2018-04-15T00:23:01.479Z,99.48
2018-04-15T00:24:01.466Z,99.57
2018-04-15T00:25:01.410Z,98.99
2018-04-15T00:26:01.380Z,99.28
2018-04-15T00:27:01.318Z,99.28
2018-04-15T00:28:01.283Z,99.66
2018-04-15T00:29:01.287Z,99.99
2018-04-15T00:30:01.205Z,99.99
2018-04-15T00:31:01.175Z,99.99
2018-04-15T00:32:01.136Z,99.99
2018-04-15T00:33:01.100Z,99.99
2018-04-15T00:34:01.058Z,99.99
2018-04-15T00:35:01.044Z,99.99
2018-04-15T00:36:00.986Z,99.99
2018-04-15T00:37:00.951Z,99.99
2018-04-15T00:38:00.912Z,99.99
2018-04-15T00:39:00.893Z,99.99
2018-04-15T00:40:00.831Z,99.99
2018-04-15T00:41:00.792Z,99.99
2018-04-15T00:42:00.749Z,99.99
2018-04-15T00:43:00.723Z,99.99
2018-04-15T00:44:00.677Z,99.99
2018-04-15T00:45:01.094Z,99.99
2018-04-15T00:46:00.600Z,99.99
2018-04-15T00:47:00.554Z,99.99
2018-04-15T00:48:00.532Z,99.99
2018-04-15T00:49:00.481Z,99.99
2018-04-15T00:50:00.440Z,99.99
2018-04-15T00:51:00.443Z,99.99
2018-04-15T00:52:00.371Z,99.99
2018-04-15T00:53:00.340Z,99.99
2018-04-15T00:54:00.294Z,99.99
2018-04-15T00:55:00.268Z,99.99
2018-04-15T00:56:00.237Z,99.99
2018-04-15T00:57:00.174Z,99.99
2018-04-15T00:58:00.147Z,99.99
2018-04-15T00:59:00.104Z,99.99
2018-04-15T01:00:00.074Z,99.99
2018-04-15T01:01:00.063Z,99.99
2018-04-15T01:01:59.992Z,99.99
2018-04-15T01:02:59.975Z,99.99
2018-04-15T01:03:59.910Z,99.99
2018-04-15T01:04:59.875Z,99.99
2018-04-15T01:05:59.838Z,99.99
2018-04-15T01:06:59.825Z,99.99
2018-04-15T01:07:59.764Z,99.99
2018-04-15T01:08:59.720Z,99.99
2018-04-15T01:09:59.691Z,99.99
2018-04-15T01:10:59.646Z,99.99
2018-04-15T01:11:59.638Z,99.99
2018-04-15T01:12:59.573Z,99.99
2018-04-15T01:13:59.534Z,99.99
2018-04-15T01:14:59.500Z,99.99
2018-04-15T01:15:59.452Z,99.99
2018-04-15T01:16:59.461Z,99.99
2018-04-15T01:17:59.379Z,99.99
2018-04-15T01:18:59.344Z,99.99
2018-04-15T01:19:59.307Z,99.99
2018-04-15T01:20:59.274Z,99.99
2018-04-15T01:21:59.222Z,99.99
2018-04-15T01:22:59.222Z,99.99
2018-04-15T01:23:59.141Z,99.99
2018-04-15T01:24:59.147Z,99.99
2018-04-15T01:25:59.070Z,99.99
2018-04-15T01:26:59.038Z,99.99
2018-04-15T01:27:59.023Z,99.99
2018-04-15T01:28:58.969Z,99.99
2018-04-15T01:29:58.928Z,99.99
2018-04-15T01:30:58.882Z,99.99
2018-04-15T01:31:58.840Z,99.99
2018-04-15T01:32:58.803Z,99.99
2018-04-15T01:33:58.803Z,99.99
2018-04-15T01:34:58.724Z,99.99
2018-04-15T01:35:58.692Z,99.99
2018-04-15T01:36:58.644Z,99.99
2018-04-15T01:37:58.615Z,99.99
2018-04-15T01:38:58.605Z,99.99
2018-04-15T01:39:58.541Z,99.99
2018-04-15T01:40:58.489Z,99.99
2018-04-15T01:41:58.459Z,99.99
2018-04-15T01:42:58.411Z,99.99
2018-04-15T01:43:58.393Z,99.99
2018-04-15T01:44:58.381Z,99.99
2018-04-15T01:45:58.307Z,99.99
2018-04-15T01:46:58.275Z,99.99
2018-04-15T01:47:58.233Z,99.99
2018-04-15T01:48:58.194Z,99.99
2018-04-15T01:49:58.176Z,99.99
2018-04-15T01:50:58.107Z,99.99
2018-04-15T01:51:58.074Z,99.99
2018-04-15T01:52:58.045Z,99.99
2018-04-15T01:53:57.993Z,99.99
2018-04-15T01:54:57.964Z,99.99
2018-04-15T01:55:57.973Z,99.99
2018-04-15T01:56:57.880Z,99.99
2018-04-15T01:57:57.836Z,99.99
2018-04-15T01:58:57.814Z,99.99
2018-04-15T01:59:57.760Z,99.99
2018-04-15T02:00:57.731Z,99.99
2018-04-15T02:01:57.736Z,99.99
2018-04-15T02:02:57.645Z,99.99
2018-04-15T02:03:57.617Z,99.99
2018-04-15T02:04:57.575Z,99.99
2018-04-15T02:05:57.546Z,99.99
2018-04-15T02:06:57.523Z,99.99
2018-04-15T02:07:57.472Z,99.99
2018-04-15T02:08:57.418Z,99.99
2018-04-15T02:09:57.379Z,99.99
2018-04-15T02:10:57.332Z,99.99
2018-04-15T02:11:57.317Z,99.99
2018-04-15T02:12:57.286Z,99.99
2018-04-15T02:13:57.222Z,99.99
2018-04-15T02:14:57.178Z,99.99
2018-04-15T02:15:57.146Z,99.99
2018-04-15T02:16:57.111Z,99.99
2018-04-15T02:17:57.074Z,99.99
2018-04-15T02:18:57.078Z,99.99
2018-04-15T02:19:56.994Z,99.99
2018-04-15T02:20:56.947Z,99.99
2018-04-15T02:21:56.919Z,99.99
2018-04-15T02:22:56.878Z,99.99
2018-04-15T02:23:56.873Z,99.99
2018-04-15T02:24:56.818Z,99.99
2018-04-15T02:25:56.768Z,99.99
2018-04-15T02:26:56.722Z,99.99
2018-04-15T02:27:56.691Z,99.99
2018-04-15T02:28:56.663Z,99.99
2018-04-15T02:29:56.635Z,99.99
2018-04-15T02:30:56.575Z,99.99
2018-04-15T02:31:56.527Z,99.99
2018-04-15T02:32:56.488Z,99.99
2018-04-15T02:33:56.456Z,99.99
2018-04-15T02:34:56.413Z,99.99
2018-04-15T02:35:56.397Z,99.99
2018-04-15T02:36:56.341Z,99.99
2018-04-15T02:37:56.296Z,99.99
2018-04-15T02:38:56.255Z,99.99
2018-04-15T02:39:56.245Z,99.99
2018-04-15T02:40:56.175Z,99.99
2018-04-15T02:41:56.145Z,99.99
2018-04-15T02:42:56.093Z,99.99
2018-04-15T02:43:56.067Z,99.99
2018-04-15T02:44:56.022Z,99.99
2018-04-15T02:45:56.058Z,99.99
2018-04-15T02:46:55.937Z,99.99
2018-04-15T02:47:55.915Z,99.99
2018-04-15T02:48:55.872Z,99.99
2018-04-15T02:49:55.831Z,99.99
2018-04-15T02:50:55.826Z,99.99
2018-04-15T02:51:55.755Z,99.99
2018-04-15T02:52:55.707Z,99.99
2018-04-15T02:53:55.679Z,99.99
2018-04-15T02:54:55.639Z,99.99
2018-04-15T02:55:55.605Z,99.99
2018-04-15T02:56:55.601Z,99.99
2018-04-15T02:57:55.529Z,99.99
2018-04-15T02:58:55.482Z,99.99
2018-04-15T02:59:55.470Z,99.99
2018-04-15T03:00:55.410Z,99.99
2018-04-15T03:01:55.406Z,99.99
2018-04-15T03:02:55.330Z,99.99
2018-04-15T03:03:55.303Z,99.99
2018-04-15T03:04:55.245Z,99.99
2018-04-15T03:05:55.219Z,99.99
2018-04-15T03:06:55.170Z,99.99
2018-04-15T03:07:55.175Z,99.99
2018-04-15T03:08:55.119Z,99.99
2018-04-15T03:09:55.048Z,99.99
2018-04-15T03:10:55.032Z,99.99
2018-04-15T03:11:55.001Z,99.99
2018-04-15T03:12:54.978Z,99.99
2018-04-15T03:13:54.953Z,99.99
2018-04-15T03:14:54.860Z,99.99
2018-04-15T03:15:54.835Z,99.99
2018-04-15T03:16:54.807Z,99.99
2018-04-15T03:17:54.759Z,99.99
2018-04-15T03:18:54.759Z,99.99
2018-04-15T03:19:54.661Z,99.99
2018-04-15T03:20:54.641Z,99.99
2018-04-15T03:21:54.615Z,99.99
2018-04-15T03:22:54.588Z,99.99
2018-04-15T03:23:54.540Z,99.99
2018-04-15T03:24:54.526Z,99.99
2018-04-15T03:25:54.453Z,99.99
2018-04-15T03:26:54.408Z,99.99
2018-04-15T03:27:54.370Z,99.99
2018-04-15T03:28:54.328Z,99.99
2018-04-15T03:29:54.369Z,99.99
2018-04-15T03:30:54.287Z,99.99
2018-04-15T03:31:54.208Z,99.99
2018-04-15T03:32:54.168Z,99.99
2018-04-15T03:33:54.161Z,99.99
2018-04-15T03:34:54.109Z,99.99
2018-04-15T03:35:54.109Z,99.99
2018-04-15T03:36:54.052Z,99.99
2018-04-15T03:37:54.001Z,99.99
2018-04-15T03:38:53.936Z,99.99
2018-04-15T03:39:53.904Z,99.99
2018-04-15T03:40:53.881Z,99.99
2018-04-15T03:41:53.852Z,99.99
2018-04-15T03:42:53.786Z,99.99
2018-04-15T03:43:53.774Z,99.99
2018-04-15T03:44:53.686Z,99.99
2018-04-15T03:45:53.674Z,99.99
2018-04-15T03:46:53.662Z,99.99
2018-04-15T03:47:53.615Z,99.99
2018-04-15T03:48:53.550Z,99.99
2018-04-15T03:49:53.497Z,99.99
2018-04-15T03:50:53.451Z,99.99
2018-04-15T03:51:53.447Z,99.99
2018-04-15T03:52:53.417Z,99.99
2018-04-15T03:53:53.416Z,99.99
2018-04-15T03:54:53.323Z,99.99
2018-04-15T03:55:53.282Z,99.99
2018-04-15T03:56:53.225Z,99.99
2018-04-15T03:57:53.228Z,99.99
2018-04-15T03:58:53.414Z,99.99
2018-04-15T03:59:53.146Z,99.99
2018-04-15T04:00:53.102Z,99.99
2018-04-15T04:01:53.023Z,99.99
2018-04-15T04:02:52.975Z,99.99
2018-04-15T04:03:53.013Z,99.99
2018-04-15T04:04:52.911Z,99.99
2018-04-15T04:05:52.879Z,99.99
2018-04-15T04:06:52.828Z,99.99
2018-04-15T04:07:52.787Z,99.99
2018-04-15T04:08:52.753Z,99.99
2018-04-15T04:09:52.796Z,99.99
2018-04-15T04:10:52.673Z,99.99
2018-04-15T04:11:52.634Z,99.99
2018-04-15T04:12:52.626Z,99.99
2018-04-15T04:13:52.566Z,99.99
2018-04-15T04:14:52.530Z,99.99
2018-04-15T04:15:52.517Z,99.99
2018-04-15T04:16:52.458Z,99.99
2018-04-15T04:17:52.401Z,99.99
2018-04-15T04:18:52.362Z,99.99
2018-04-15T04:19:52.340Z,99.99
2018-04-15T04:20:52.337Z,99.99
2018-04-15T04:21:52.245Z,99.99
2018-04-15T04:22:52.219Z,99.99
2018-04-15T04:23:52.173Z,99.99
2018-04-15T04:24:52.169Z,99.99
2018-04-15T04:25:52.154Z,99.99
2018-04-15T04:26:52.041Z,99.99
2018-04-15T04:27:52.015Z,99.99
2018-04-15T04:28:51.975Z,99.99
2018-04-15T04:29:51.950Z,99.99
2018-04-15T04:30:51.910Z,99.99
2018-04-15T04:31:51.910Z,99.99
2018-04-15T04:32:51.822Z,99.99
2018-04-15T04:33:51.775Z,99.99
2018-04-15T04:34:51.747Z,99.99
2018-04-15T04:35:51.718Z,99.99
2018-04-15T04:36:51.706Z,99.99
2018-04-15T04:37:51.650Z,99.99
2018-04-15T04:38:51.573Z,99.99
2018-04-15T04:39:51.542Z,99.99
2018-04-15T04:40:51.518Z,99.99
2018-04-15T04:41:51.525Z,99.99
2018-04-15T04:42:52.017Z,99.99
2018-04-15T04:43:51.412Z,99.99
2018-04-15T04:44:51.355Z,99.99
2018-04-15T04:45:51.387Z,99.99
2018-04-15T04:46:51.305Z,99.99
2018-04-15T04:47:51.315Z,99.99
2018-04-15T04:48:51.252Z,99.99
2018-04-15T04:49:51.233Z,99.99
2018-04-15T04:50:51.143Z,99.99
2018-04-15T04:51:51.086Z,99.99
2018-04-15T04:52:51.052Z,99.99
2018-04-15T04:53:51.048Z,99.99
2018-04-15T04:54:50.958Z,99.99
2018-04-15T04:55:50.925Z,99.99
2018-04-15T04:56:50.902Z,99.99
2018-04-15T04:57:50.881Z,99.99
2018-04-15T04:58:50.835Z,99.99
2018-04-15T04:59:50.756Z,99.99
2018-04-15T05:00:50.724Z,99.99
2018-04-15T05:01:50.693Z,99.99
2018-04-15T05:02:50.632Z,99.99
2018-04-15T05:03:50.651Z,99.99
2018-04-15T05:04:50.563Z,99.99
2018-04-15T05:05:50.523Z,99.99
2018-04-15T05:06:50.508Z,99.99
2018-04-15T05:07:50.471Z,99.99
2018-04-15T05:08:50.425Z,99.99
2018-04-15T05:09:50.423Z,99.99
2018-04-15T05:10:50.365Z,99.99
2018-04-15T05:11:50.295Z,99.99
2018-04-15T05:12:50.255Z,99.99
2018-04-15T05:13:50.225Z,99.99
2018-04-15T05:14:50.210Z,99.99
2018-04-15T05:15:50.178Z,99.99
2018-04-15T05:16:50.109Z,99.99
2018-04-15T05:17:50.070Z,99.99
2018-04-15T05:18:50.086Z,99.99
2018-04-15T05:19:50.026Z,99.99
2018-04-15T05:20:49.980Z,99.99
2018-04-15T05:21:50.014Z,99.99
2018-04-15T05:22:49.879Z,99.99
2018-04-15T05:23:49.837Z,99.99
2018-04-15T05:24:49.802Z,99.99
2018-04-15T05:25:49.839Z,99.99
2018-04-15T05:26:49.727Z,99.99
2018-04-15T05:27:49.673Z,99.99
2018-04-15T05:28:49.648Z,99.99
2018-04-15T05:29:49.613Z,99.99
2018-04-15T05:30:49.556Z,99.99
2018-04-15T05:31:49.547Z,99.99
2018-04-15T05:32:49.500Z,99.99
2018-04-15T05:33:49.465Z,99.99
2018-04-15T05:34:49.425Z,99.99
2018-04-15T05:35:49.368Z,99.99
2018-04-15T05:36:49.322Z,99.99
2018-04-15T05:37:49.321Z,99.99
2018-04-15T05:38:49.266Z,99.99
2018-04-15T05:39:50.027Z,99.99
2018-04-15T05:40:49.214Z,99.99
2018-04-15T05:41:49.129Z,99.99
2018-04-15T05:42:49.134Z,99.99
2018-04-15T05:43:49.058Z,99.99
2018-04-15T05:44:49.020Z,99.99
2018-04-15T05:45:48.954Z,99.99
2018-04-15T05:46:48.924Z,99.99
2018-04-15T05:47:48.901Z,99.99
2018-04-15T05:48:48.877Z,99.99
2018-04-15T05:49:48.807Z,99.99
2018-04-15T05:50:48.776Z,99.99
2018-04-15T05:51:48.756Z,99.99
2018-04-15T05:52:48.714Z,99.99
2018-04-15T05:53:48.689Z,99.99
2018-04-15T05:54:48.647Z,99.99
2018-04-15T05:55:48.575Z,99.99
2018-04-15T05:56:48.550Z,99.99
2018-04-15T05:57:48.515Z,99.99
2018-04-15T05:58:48.482Z,99.99
2018-04-15T05:59:48.450Z,99.99
2018-04-15T06:00:48.381Z,99.99
2018-04-15T06:01:48.353Z,99.99
2018-04-15T06:02:48.301Z,99.99
2018-04-15T06:03:48.297Z,99.99
2018-04-15T06:04:48.279Z,99.99
2018-04-15T06:05:48.256Z,99.99
2018-04-15T06:06:48.150Z,99.99
2018-04-15T06:07:48.182Z,99.99
2018-04-15T06:08:48.091Z,99.99
2018-04-15T06:09:48.083Z,99.99
2018-04-15T06:10:48.003Z,99.99
2018-04-15T06:11:47.967Z,99.99
2018-04-15T06:12:47.920Z,99.99
2018-04-15T06:13:48.004Z,99.99
2018-04-15T06:14:47.947Z,99.99
2018-04-15T06:15:47.820Z,99.99
2018-04-15T06:16:47.787Z,99.99
2018-04-15T06:17:47.727Z,99.99
2018-04-15T06:18:47.672Z,99.99
2018-04-15T06:19:47.636Z,99.99
2018-04-15T06:20:47.652Z,99.99
2018-04-15T06:21:47.557Z,99.99
2018-04-15T06:22:47.520Z,99.99
2018-04-15T06:23:47.486Z,99.99
2018-04-15T06:24:47.476Z,99.99
2018-04-15T06:25:47.538Z,99.99
2018-04-15T06:26:47.479Z,99.99
2018-04-15T06:27:47.386Z,99.99
2018-04-15T06:28:47.363Z,99.99
2018-04-15T06:29:47.290Z,99.99
2018-04-15T06:30:47.214Z,99.99
2018-04-15T06:31:47.239Z,99.99
2018-04-15T06:32:47.145Z,99.99
2018-04-15T06:33:47.177Z,99.99
2018-04-15T06:34:47.107Z,99.99
2018-04-15T06:35:47.033Z,99.99
2018-04-15T06:36:47.001Z,99.99
2018-04-15T06:37:46.982Z,99.99
2018-04-15T06:38:47.047Z,99.99
2018-04-15T06:39:46.868Z,99.99
2018-04-15T06:40:46.847Z,99.99
2018-04-15T06:41:46.791Z,99.99
2018-04-15T06:42:46.768Z,99.99
2018-04-15T06:43:46.761Z,99.99
2018-04-15T06:44:46.662Z,99.99
2018-04-15T06:45:46.660Z,99.99
2018-04-15T06:46:46.592Z,99.99
2018-04-15T06:47:46.547Z,99.99
2018-04-15T06:48:46.556Z,99.99
2018-04-15T06:49:46.477Z,99.99
2018-04-15T06:50:46.441Z,99.99
2018-04-15T06:51:46.391Z,99.99
2018-04-15T06:52:46.388Z,99.99
2018-04-15T06:53:46.318Z,99.99
2018-04-15T06:54:46.313Z,99.99
2018-04-15T06:55:46.262Z,99.99
2018-04-15T06:56:46.222Z,99.99
2018-04-15T06:57:46.154Z,99.99
2018-04-15T06:58:46.120Z,99.99
2018-04-15T06:59:46.086Z,99.99
2018-04-15T07:00:46.081Z,99.99
2018-04-15T07:01:46.008Z,99.99
2018-04-15T07:02:45.966Z,99.99
2018-04-15T07:03:45.957Z,99.99
2018-04-15T07:04:45.917Z,99.99
2018-04-15T07:05:45.903Z,99.99
2018-04-15T07:06:45.825Z,99.99
2018-04-15T07:07:45.835Z,99.99
2018-04-15T07:08:45.752Z,99.99
2018-04-15T07:09:45.727Z,99.99
2018-04-15T07:10:45.688Z,99.99
2018-04-15T07:11:45.674Z,99.99
2018-04-15T07:12:45.586Z,99.99
2018-04-15T07:13:45.554Z,99.99
2018-04-15T07:14:45.523Z,99.99
2018-04-15T07:15:45.471Z,99.99
2018-04-15T07:16:45.461Z,99.99
2018-04-15T07:17:45.401Z,99.99
2018-04-15T07:18:45.361Z,99.99
2018-04-15T07:19:45.325Z,99.99
2018-04-15T07:20:45.292Z,99.99
2018-04-15T07:21:45.295Z,99.99
2018-04-15T07:22:45.233Z,99.99
2018-04-15T07:23:45.166Z,99.99
2018-04-15T07:24:45.124Z,99.99
2018-04-15T07:25:45.097Z,99.99
2018-04-15T07:26:45.052Z,99.99
2018-04-15T07:27:45.064Z,99.99
2018-04-15T07:28:44.985Z,99.99
2018-04-15T07:29:44.944Z,99.99
2018-04-15T07:30:44.911Z,99.99
2018-04-15T07:31:44.869Z,99.99
2018-04-15T07:32:44.830Z,99.99
2018-04-15T07:33:44.854Z,99.99
2018-04-15T07:34:44.759Z,99.99
2018-04-15T07:35:44.723Z,99.72
2018-04-15T07:36:44.674Z,98.47
2018-04-15T07:37:44.657Z,99.00
2018-04-15T07:38:44.636Z,98.86
2018-04-15T07:39:44.568Z,98.10
2018-04-15T07:40:44.537Z,97.23
2018-04-15T07:41:44.497Z,96.84
2018-04-15T07:42:44.456Z,96.61
2018-04-15T07:43:44.435Z,96.03
2018-04-15T07:44:44.411Z,96.42
2018-04-15T07:45:44.343Z,95.60
2018-04-15T07:46:44.328Z,95.79
2018-04-15T07:47:44.276Z,97.23
2018-04-15T07:48:44.230Z,96.94
2018-04-15T07:49:44.236Z,97.18
2018-04-15T07:50:44.158Z,97.09
2018-04-15T07:51:44.136Z,97.28
2018-04-15T07:52:44.089Z,97.56
2018-04-15T07:53:44.063Z,98.76
2018-04-15T07:54:44.021Z,98.57
2018-04-15T07:55:44.017Z,98.76
2018-04-15T07:56:43.950Z,99.38
2018-04-15T07:57:43.916Z,97.56
2018-04-15T07:58:43.869Z,94.21
2018-04-15T07:59:43.844Z,92.67
2018-04-15T08:00:43.805Z,89.88
2018-04-15T08:01:43.801Z,91.28
2018-04-15T08:02:43.732Z,90.32
2018-04-15T08:03:43.703Z,92.43
2018-04-15T08:04:43.669Z,91.91
2018-04-15T08:05:43.625Z,92.05
2018-04-15T08:06:43.625Z,93.26
2018-04-15T08:07:43.570Z,93.06
2018-04-15T08:08:43.524Z,94.17
2018-04-15T08:09:43.493Z,93.97
2018-04-15T08:10:43.449Z,91.52
2018-04-15T08:11:43.419Z,91.57
2018-04-15T08:12:43.420Z,88.31
2018-04-15T08:13:43.360Z,88.97
2018-04-15T08:14:43.317Z,86.62
2018-04-15T08:15:43.275Z,89.36
2018-04-15T08:16:43.240Z,86.61
2018-04-15T08:17:43.214Z,85.84
2018-04-15T08:18:43.207Z,86.41
2018-04-15T08:19:43.150Z,84.05
2018-04-15T08:20:43.108Z,84.14
2018-04-15T08:21:43.085Z,81.77
2018-04-15T08:22:43.044Z,82.89
2018-04-15T08:23:43.043Z,82.93
2018-04-15T08:24:42.978Z,82.68
2018-04-15T08:25:42.949Z,80.46
2018-04-15T08:26:42.938Z,82.14
2018-04-15T08:27:42.878Z,82.48
2018-04-15T08:28:42.855Z,80.78
2018-04-15T08:29:42.870Z,77.11
2018-04-15T08:30:42.787Z,76.75
2018-04-15T08:31:42.763Z,81.47
2018-04-15T08:32:42.737Z,78.50
2018-04-15T08:33:42.692Z,78.83
2018-04-15T08:34:42.667Z,79.11
2018-04-15T08:35:42.667Z,80.44
2018-04-15T08:36:42.604Z,81.45
2018-04-15T08:37:42.570Z,81.62
2018-04-15T08:38:42.551Z,79.41
2018-04-15T08:39:42.513Z,80.41
2018-04-15T08:40:42.517Z,78.69
2018-04-15T08:41:42.461Z,77.11
2018-04-15T08:42:42.419Z,79.67
2018-04-15T08:43:42.393Z,80.50
2018-04-15T08:44:42.370Z,82.21
2018-04-15T08:45:42.330Z,80.52
2018-04-15T08:46:42.340Z,79.08
2018-04-15T08:47:42.266Z,79.86
2018-04-15T08:48:42.243Z,82.31
2018-04-15T08:49:42.231Z,80.35
2018-04-15T08:50:42.182Z,82.04
2018-04-15T08:51:42.150Z,82.82
2018-04-15T08:52:42.150Z,84.22
2018-04-15T08:53:42.098Z,84.99
2018-04-15T08:54:42.053Z,86.29
2018-04-15T08:55:42.039Z,86.10
2018-04-15T08:56:42.006Z,86.72
2018-04-15T08:57:42.001Z,85.08
2018-04-15T08:58:41.940Z,85.04
2018-04-15T08:59:41.909Z,85.58
2018-04-15T09:00:41.917Z,86.15
2018-04-15T09:01:41.857Z,87.45
2018-04-15T09:02:41.824Z,86.24
2018-04-15T09:03:41.817Z,84.75
2018-04-15T09:04:41.752Z,85.24
2018-04-15T09:05:41.720Z,84.12
2018-04-15T09:06:41.688Z,84.69
2018-04-15T09:07:41.648Z,81.56
2018-04-15T09:08:41.627Z,79.33
2018-04-15T09:09:41.635Z,78.02
2018-04-15T09:10:41.556Z,76.61
2018-04-15T09:11:41.522Z,77.73
2018-04-15T09:12:41.491Z,76.67
2018-04-15T09:13:41.460Z,76.36
2018-04-15T09:14:41.474Z,73.85
2018-04-15T09:15:41.411Z,71.92
2018-04-15T09:16:41.375Z,73.72
2018-04-15T09:17:41.345Z,72.69
2018-04-15T09:18:41.308Z,71.34
2018-04-15T09:19:41.268Z,72.50
2018-04-15T09:20:41.277Z,73.41
2018-04-15T09:21:41.226Z,71.00
2018-04-15T09:22:41.185Z,71.28
2018-04-15T09:23:41.168Z,71.96
2018-04-15T09:24:41.129Z,71.25
2018-04-15T09:25:41.103Z,72.21
2018-04-15T09:26:41.097Z,72.85
2018-04-15T09:27:41.034Z,73.33
2018-04-15T09:28:41.007Z,75.45
2018-04-15T09:29:40.974Z,76.86
2018-04-15T09:30:40.957Z,74.40
2018-04-15T09:31:40.915Z,71.15
2018-04-15T09:32:40.916Z,72.02
2018-04-15T09:33:40.877Z,71.15
2018-04-15T09:34:40.837Z,71.22
2018-04-15T09:35:40.801Z,73.01
2018-04-15T09:36:40.794Z,74.22
2018-04-15T09:37:40.759Z,76.34
2018-04-15T09:38:40.718Z,76.48
2018-04-15T09:39:40.682Z,72.66
2018-04-15T09:40:40.659Z,73.68
2018-04-15T09:41:40.634Z,76.38
2018-04-15T09:42:40.635Z,74.74
2018-04-15T09:43:40.576Z,74.10
2018-04-15T09:44:40.544Z,73.20
2018-04-15T09:45:40.505Z,76.09
2018-04-15T09:46:40.483Z,75.80
2018-04-15T09:47:40.475Z,73.53
2018-04-15T09:48:40.458Z,72.31
2018-04-15T09:49:40.404Z,71.00
2018-04-15T09:50:40.374Z,73.88
2018-04-15T09:51:40.339Z,74.14
2018-04-15T09:52:40.342Z,72.05
2018-04-15T09:53:40.282Z,76.40
2018-04-15T09:54:40.311Z,78.42
2018-04-15T09:55:40.238Z,78.42
2018-04-15T09:56:40.211Z,78.27
2018-04-15T09:57:40.171Z,75.79
2018-04-15T09:58:40.137Z,78.28
2018-04-15T09:59:40.125Z,77.94
2018-04-15T10:00:40.115Z,77.94
2018-04-15T10:01:40.050Z,77.90
2018-04-15T10:02:40.023Z,78.81
2018-04-15T10:03:40.001Z,77.40
2018-04-15T10:04:39.969Z,74.82
2018-04-15T10:05:39.927Z,73.84
2018-04-15T10:06:39.933Z,75.28
2018-04-15T10:07:39.881Z,77.06
2018-04-15T10:08:39.845Z,74.74
2018-04-15T10:09:39.812Z,73.30
2018-04-15T10:10:39.798Z,70.83
2018-04-15T10:11:39.783Z,74.51
2018-04-15T10:12:39.730Z,73.78
2018-04-15T10:13:39.707Z,74.71
2018-04-15T10:14:39.694Z,74.74
2018-04-15T10:15:39.644Z,73.78
2018-04-15T10:16:39.642Z,72.85
2018-04-15T10:17:39.572Z,70.83
2018-04-15T10:18:39.555Z,73.39
2018-04-15T10:19:39.513Z,76.59
2018-04-15T10:20:39.509Z,76.69
2018-04-15T10:21:39.463Z,74.96
2018-04-15T10:22:39.465Z,76.98
2018-04-15T10:23:39.402Z,77.71
2018-04-15T10:24:39.397Z,76.18
2018-04-15T10:25:39.363Z,74.10
2018-04-15T10:26:39.335Z,72.89
2018-04-15T10:27:39.290Z,71.77
2018-04-15T10:28:39.291Z,70.54
2018-04-15T10:29:39.244Z,69.32
2018-04-15T10:30:39.203Z,69.73
2018-04-15T10:31:39.181Z,70.83
2018-04-15T10:32:39.161Z,69.19
2018-04-15T10:33:39.153Z,69.87
2018-04-15T10:34:39.096Z,71.54
2018-04-15T10:35:39.059Z,70.64
2018-04-15T10:36:39.033Z,72.81
2018-04-15T10:37:38.997Z,71.76
2018-04-15T10:38:38.985Z,71.76
2018-04-15T10:39:38.974Z,73.53
2018-04-15T10:40:38.908Z,68.74
2018-04-15T10:41:38.888Z,65.11
2018-04-15T10:42:38.873Z,61.77
2018-04-15T10:43:38.848Z,61.12
2018-04-15T10:44:38.813Z,62.57
2018-04-15T10:45:38.816Z,64.21
2018-04-15T10:46:38.810Z,66.05
2018-04-15T10:47:38.721Z,64.53
2018-04-15T10:48:38.695Z,65.63
2018-04-15T10:49:38.662Z,66.36
2018-04-15T10:50:38.672Z,66.85
2018-04-15T10:51:38.617Z,66.72
2018-04-15T10:52:38.582Z,68.42
2018-04-15T10:53:38.558Z,70.50
2018-04-15T10:54:38.522Z,70.89
2018-04-15T10:55:38.495Z,70.76
2018-04-15T10:56:38.494Z,72.20
2018-04-15T10:57:38.437Z,72.91
2018-04-15T10:58:38.414Z,71.41
2018-04-15T10:59:38.383Z,71.34
2018-04-15T11:00:38.359Z,68.16
2018-04-15T11:01:38.318Z,66.65
2018-04-15T11:02:38.321Z,68.74
2018-04-15T11:03:38.266Z,69.09
2018-04-15T11:04:38.238Z,69.82
2018-04-15T11:05:38.210Z,70.34
2018-04-15T11:06:38.168Z,71.81
2018-04-15T11:07:38.189Z,71.12
2018-04-15T11:08:38.154Z,69.73
2018-04-15T11:09:38.081Z,70.86
2018-04-15T11:10:38.062Z,74.51
2018-04-15T11:11:38.021Z,70.37
2018-04-15T11:12:37.996Z,69.54
2018-04-15T11:13:37.993Z,68.00
2018-04-15T11:14:37.935Z,66.78
2018-04-15T11:15:37.903Z,66.91
2018-04-15T11:16:37.878Z,64.59
2018-04-15T11:17:37.856Z,63.76
2018-04-15T11:18:37.827Z,65.11
2018-04-15T11:19:37.823Z,65.20
2018-04-15T11:20:37.756Z,66.24
2018-04-15T11:21:37.728Z,67.40
2018-04-15T11:22:37.697Z,65.40
2018-04-15T11:23:37.665Z,65.30
2018-04-15T11:24:37.674Z,62.48
2018-04-15T11:25:37.614Z,63.73
2018-04-15T11:26:37.586Z,65.63
2018-04-15T11:27:37.561Z,65.05
2018-04-15T11:28:37.528Z,65.24
2018-04-15T11:29:37.507Z,65.63
2018-04-15T11:30:37.508Z,65.33
2018-04-15T11:31:37.438Z,65.20
2018-04-15T11:32:37.410Z,67.10
2018-04-15T11:33:37.385Z,69.70
2018-04-15T11:34:37.358Z,66.07
2018-04-15T11:35:37.332Z,66.39
2018-04-15T11:36:37.328Z,68.10
2018-04-15T11:37:37.271Z,67.23
2018-04-15T11:38:37.241Z,66.01
2018-04-15T11:39:37.216Z,66.36
2018-04-15T11:40:37.184Z,68.35
2018-04-15T11:41:37.185Z,66.52
2018-04-15T11:42:37.130Z,68.06
2018-04-15T11:43:37.096Z,67.52
2018-04-15T11:44:37.065Z,66.17
2018-04-15T11:45:37.074Z,66.46
2018-04-15T11:46:37.000Z,68.22
2018-04-15T11:47:37.010Z,70.40
2018-04-15T11:48:36.945Z,72.42
2018-04-15T11:49:36.923Z,72.13
2018-04-15T11:50:36.878Z,71.94
2018-04-15T11:51:36.903Z,70.53
2018-04-15T11:52:36.835Z,70.15
2018-04-15T11:53:36.818Z,69.57
2018-04-15T11:54:36.772Z,70.88
2018-04-15T11:55:36.770Z,69.63
2018-04-15T11:56:36.716Z,71.36
2018-04-15T11:57:36.679Z,72.19
2018-04-15T11:58:36.702Z,73.09
2018-04-15T11:59:36.637Z,73.96
2018-04-15T12:00:36.587Z,71.40
2018-04-15T12:01:36.546Z,72.07
2018-04-15T12:02:36.524Z,73.90
2018-04-15T12:03:36.482Z,71.01
2018-04-15T12:04:36.484Z,70.30
2018-04-15T12:05:36.473Z,71.08
2018-04-15T12:06:36.401Z,73.28
2018-04-15T12:07:36.359Z,71.94
2018-04-15T12:08:36.339Z,70.98
2018-04-15T12:09:36.308Z,71.49
2018-04-15T12:10:36.299Z,71.17
2018-04-15T12:11:36.237Z,70.50
2018-04-15T12:12:36.214Z,70.50
2018-04-15T12:13:36.170Z,69.98
2018-04-15T12:14:36.140Z,70.78
2018-04-15T12:15:36.146Z,72.48
2018-04-15T12:16:36.081Z,71.36
2018-04-15T12:17:36.054Z,70.40
2018-04-15T12:18:36.012Z,71.36
2018-04-15T12:19:35.991Z,68.60
2018-04-15T12:20:35.954Z,70.78
2018-04-15T12:21:35.959Z,70.72
2018-04-15T12:22:35.891Z,69.79
2018-04-15T12:23:35.865Z,69.22
2018-04-15T12:24:35.829Z,69.79
2018-04-15T12:25:35.788Z,68.35
2018-04-15T12:26:35.773Z,67.42
2018-04-15T12:27:35.765Z,68.35
2018-04-15T12:28:35.701Z,67.87
2018-04-15T12:29:35.680Z,67.13
2018-04-15T12:30:35.645Z,65.24
2018-04-15T12:31:35.621Z,64.98
2018-04-15T12:32:35.623Z,67.00
2018-04-15T12:33:35.556Z,64.69
2018-04-15T12:34:35.525Z,65.47
2018-04-15T12:35:35.497Z,63.41
2018-04-15T12:36:35.477Z,63.50
2018-04-15T12:37:35.434Z,64.34
2018-04-15T12:38:35.459Z,64.79
2018-04-15T12:39:35.386Z,66.62
2018-04-15T12:40:35.346Z,68.16
2018-04-15T12:41:35.322Z,67.39
2018-04-15T12:42:35.290Z,66.55
2018-04-15T12:43:35.274Z,66.27
2018-04-15T12:44:35.284Z,66.55
2018-04-15T12:45:35.208Z,65.01
2018-04-15T12:46:35.186Z,65.30
2018-04-15T12:47:35.147Z,65.11
2018-04-15T12:48:35.122Z,65.88
2018-04-15T12:49:35.094Z,64.15
2018-04-15T12:50:35.108Z,64.43
2018-04-15T12:51:35.045Z,65.20